Time;durP1;ratioP1;P1;durP2;ratioP2;P2;SDS_P1;SDS_P2;PMS_P1;PMS_P2;Temp;Humidity;BMP_temperature;BMP_pressure;BME280_temperature;BME280_humidity;BME280_pressure;Samples;Min_cycle;Max_cycle;Signal;HPM_P1;HPM_P2
2022/07/19 00:01:50;;;;;;;10.63;7.63;;;20.20;1.00;;;;;;6349175;22;20381;-75
2022/07/19 00:04:20;;;;;;;13.23;8.40;;;20.10;1.00;;;;;;6349159;22;20500;-77
2022/07/19 00:06:47;;;;;;;7.13;6.43;;;20.00;1.00;;;;;;6348458;22;20508;-75
2022/07/19 00:09:15;;;;;;;8.97;7.17;;;20.00;1.00;;;;;;6349464;22;20426;-79
2022/07/19 00:11:44;;;;;;;9.73;8.10;;;20.00;1.00;;;;;;6354507;22;20441;-80
2022/07/19 00:14:14;;;;;;;8.63;7.80;;;19.90;1.00;;;;;;6356895;22;20456;-80
2022/07/19 00:16:42;;;;;;;8.97;7.83;;;19.90;1.00;;;;;;6356278;22;20424;-79
2022/07/19 00:19:13;;;;;;;7.33;6.63;;;19.90;1.00;;;;;;6355254;22;20389;-79
2022/07/19 00:21:41;;;;;;;7.60;6.90;;;19.90;1.00;;;;;;6353747;22;21209;-80
2022/07/19 00:24:12;;;;;;;8.43;7.67;;;19.80;1.00;;;;;;6354909;22;20408;-80
2022/07/19 00:26:40;;;;;;;7.97;7.17;;;19.80;1.00;;;;;;6356437;22;20831;-80
2022/07/19 00:29:08;;;;;;;7.70;7.00;;;19.80;1.00;;;;;;6349737;22;20400;-81
2022/07/19 00:31:36;;;;;;;7.60;6.90;;;19.70;1.00;;;;;;6355730;22;20813;-80
2022/07/19 00:34:04;;;;;;;8.40;7.53;;;19.70;1.00;;;;;;6354859;22;20385;-80
2022/07/19 00:36:31;;;;;;;9.33;8.10;;;19.60;1.00;;;;;;6355713;22;20513;-80
2022/07/19 00:39:04;;;;;;;9.80;8.10;;;19.60;1.00;;;;;;6354296;22;20759;-80
2022/07/19 00:41:31;;;;;;;10.63;7.40;;;19.60;1.00;;;;;;6354262;22;20422;-78
2022/07/19 00:44:04;;;;;;;8.03;7.17;;;19.60;1.00;;;;;;6354355;22;20497;-76
2022/07/19 00:46:31;;;;;;;8.77;7.80;;;19.60;1.00;;;;;;6355278;22;20429;-77
2022/07/19 00:49:06;;;;;;;8.13;7.33;;;19.60;1.00;;;;;;6354673;22;21127;-80
2022/07/19 00:51:35;;;;;;;7.63;6.83;;;19.60;1.00;;;;;;6356502;22;20441;-80
2022/07/19 00:54:05;;;;;;;8.30;7.60;;;19.50;1.00;;;;;;6354641;22;20389;-77
2022/07/19 00:56:34;;;;;;;8.00;7.20;;;19.50;1.00;;;;;;6355615;22;20445;-80
2022/07/19 00:59:12;;;;;;;8.23;7.43;;;19.40;1.00;;;;;;6354540;22;20541;-77
2022/07/19 01:01:44;;;;;;;8.17;7.40;;;19.40;1.00;;;;;;6352375;22;20401;-77
2022/07/19 01:04:11;;;;;;;9.07;7.43;;;19.40;1.00;;;;;;6352564;22;20902;-78
2022/07/19 01:06:48;;;;;;;10.10;8.43;;;19.40;1.00;;;;;;6351966;22;20430;-80
2022/07/19 01:09:15;;;;;;;8.93;8.03;;;19.30;1.00;;;;;;6355338;22;20551;-79
2022/07/19 01:11:44;;;;;;;8.77;8.00;;;19.30;1.00;;;;;;6351965;22;20437;-81
2022/07/19 01:14:12;;;;;;;9.43;7.30;;;19.20;1.00;;;;;;6353590;22;20496;-78
2022/07/19 01:16:45;;;;;;;8.47;7.67;;;19.20;1.00;;;;;;6355613;22;20394;-80
2022/07/19 01:19:14;;;;;;;7.43;6.73;;;19.20;1.00;;;;;;6353752;22;20449;-80
2022/07/19 01:21:47;;;;;;;8.57;7.63;;;19.10;1.00;;;;;;6354148;22;20512;-79
2022/07/19 01:24:14;;;;;;;9.10;8.20;;;19.10;1.00;;;;;;6353049;22;20928;-78
2022/07/19 01:26:44;;;;;;;9.60;7.80;;;19.10;1.00;;;;;;6354728;22;20457;-77
2022/07/19 01:29:15;;;;;;;8.73;7.93;;;19.00;1.00;;;;;;6352758;22;20425;-81
2022/07/19 01:31:46;;;;;;;7.80;7.03;;;18.90;1.00;;;;;;6354134;22;20457;-77
2022/07/19 01:34:12;;;;;;;8.80;7.90;;;18.90;1.00;;;;;;6353055;22;20406;-79
2022/07/19 01:36:43;;;;;;;9.33;8.17;;;18.90;1.00;;;;;;6348874;22;20425;-81
2022/07/19 01:39:14;;;;;;;8.20;7.50;;;18.90;1.00;;;;;;6353737;22;20479;-79
2022/07/19 01:41:41;;;;;;;7.57;6.87;;;18.90;1.00;;;;;;6352624;22;20460;-81
2022/07/19 01:44:10;;;;;;;8.47;7.60;;;18.80;1.00;;;;;;6339887;22;20929;-80
2022/07/19 01:46:43;;;;;;;7.77;7.07;;;18.80;1.00;;;;;;6351083;22;20411;-79
2022/07/19 01:49:10;;;;;;;9.03;7.73;;;18.70;1.00;;;;;;6352892;22;20414;-78
2022/07/19 01:51:37;;;;;;;8.90;7.27;;;18.70;1.00;;;;;;6354372;22;20913;-78
2022/07/19 01:54:04;;;;;;;8.20;7.50;;;18.70;1.00;;;;;;6352088;22;20457;-78
2022/07/19 01:56:32;;;;;;;9.40;8.47;;;18.60;1.00;;;;;;6346028;22;20437;-78
2022/07/19 01:59:04;;;;;;;9.03;7.27;;;18.60;1.00;;;;;;6354400;22;20506;-81
2022/07/19 02:01:31;;;;;;;7.70;6.83;;;18.50;1.00;;;;;;6355434;22;20416;-79
2022/07/19 02:04:00;;;;;;;9.90;7.30;;;18.50;1.00;;;;;;6354080;22;20437;-79
2022/07/19 02:06:27;;;;;;;8.63;7.90;;;18.50;1.00;;;;;;6353275;22;20448;-77
2022/07/19 02:08:54;;;;;;;7.70;6.90;;;18.50;1.00;;;;;;6355695;22;20433;-80
2022/07/19 02:11:36;;;;;;;7.50;6.77;;;18.50;1.00;;;;;;6353538;22;20393;-76
2022/07/19 02:14:06;;;;;;;9.47;7.83;;;18.50;1.00;;;;;;6351529;22;20395;-77
2022/07/19 02:16:33;;;;;;;8.43;7.70;;;18.40;1.00;;;;;;6351745;22;20496;-79
2022/07/19 02:19:04;;;;;;;8.17;7.47;;;18.40;1.00;;;;;;6353258;22;20409;-79
2022/07/19 02:21:31;;;;;;;7.70;6.90;;;18.30;1.00;;;;;;6355514;22;20432;-79
2022/07/19 02:24:05;;;;;;;8.37;7.57;;;18.30;1.00;;;;;;6352474;22;20790;-78
2022/07/19 02:26:32;;;;;;;12.87;7.70;;;18.30;1.00;;;;;;6326615;22;20441;-76
2022/07/19 02:29:05;;;;;;;8.10;7.30;;;18.20;1.00;;;;;;6351210;22;20412;-77
2022/07/19 02:31:32;;;;;;;9.73;7.20;;;18.20;1.00;;;;;;6349858;22;20441;-76
2022/07/19 02:34:04;;;;;;;8.47;7.60;;;18.20;1.00;;;;;;6335184;22;20394;-75
2022/07/19 02:36:31;;;;;;;7.73;7.03;;;18.10;1.00;;;;;;6355050;22;20497;-80
2022/07/19 02:39:02;;;;;;;8.37;7.57;;;18.20;1.00;;;;;;6353560;22;21228;-79
2022/07/19 02:41:31;;;;;;;7.40;6.70;;;18.10;1.00;;;;;;6354736;22;20475;-79
2022/07/19 02:44:00;;;;;;;7.73;7.00;;;18.10;1.00;;;;;;6349558;22;20393;-79
2022/07/19 02:46:31;;;;;;;7.97;7.27;;;18.00;1.00;;;;;;6344883;22;20955;-79
2022/07/19 02:48:59;;;;;;;8.53;7.50;;;18.00;1.00;;;;;;6350019;22;20837;-76
2022/07/19 02:51:29;;;;;;;8.13;7.40;;;18.00;1.00;;;;;;6351531;22;20501;-79
2022/07/19 02:53:56;;;;;;;8.40;7.60;;;17.90;1.00;;;;;;6351580;22;20421;-77
2022/07/19 02:56:24;;;;;;;7.93;7.23;;;17.90;1.00;;;;;;6351495;22;20460;-79
2022/07/19 02:58:51;;;;;;;7.40;6.80;;;17.90;1.00;;;;;;6347174;22;20440;-76
2022/07/19 03:01:23;;;;;;;9.20;7.80;;;17.80;1.00;;;;;;6352881;22;20430;-77
2022/07/19 03:03:51;;;;;;;8.77;7.17;;;17.80;1.00;;;;;;6351191;22;20484;-79
2022/07/19 03:06:24;;;;;;;8.73;7.83;;;17.80;1.00;;;;;;6350215;22;20479;-78
2022/07/19 03:08:50;;;;;;;10.30;7.40;;;17.80;1.00;;;;;;6351789;22;21008;-79
2022/07/19 03:11:17;;;;;;;8.20;7.40;;;17.80;1.00;;;;;;6347695;22;20424;-77
2022/07/19 03:13:45;;;;;;;9.37;7.60;;;17.80;1.00;;;;;;6353223;22;20417;-77
2022/07/19 03:16:12;;;;;;;8.60;7.83;;;17.80;1.00;;;;;;6350442;22;20439;-77
2022/07/19 03:18:44;;;;;;;9.70;7.93;;;17.80;1.00;;;;;;6352965;22;20380;-79
2022/07/19 03:21:12;;;;;;;9.40;7.40;;;17.80;1.00;;;;;;6353417;22;20421;-79
2022/07/19 03:23:44;;;;;;;8.93;7.20;;;17.80;1.00;;;;;;6353942;22;20393;-79
2022/07/19 03:26:11;;;;;;;10.90;7.67;;;17.80;1.00;;;;;;6348975;22;20417;-76
2022/07/19 03:28:45;;;;;;;11.67;7.40;;;17.80;1.00;;;;;;6353510;22;20479;-78
2022/07/19 03:31:11;;;;;;;7.37;6.67;;;17.80;1.00;;;;;;6353987;22;20411;-76
2022/07/19 03:33:43;;;;;;;9.30;8.23;;;17.80;1.00;;;;;;6352743;22;20421;-79
2022/07/19 03:36:09;;;;;;;9.30;7.60;;;17.80;1.00;;;;;;6353874;22;20417;-76
2022/07/19 03:38:42;;;;;;;8.93;8.00;;;17.70;1.00;;;;;;6354467;22;20421;-76
2022/07/19 03:41:09;;;;;;;8.73;7.30;;;17.70;1.00;;;;;;6353633;22;20452;-78
2022/07/19 03:43:42;;;;;;;13.83;11.90;;;17.70;1.00;;;;;;6349034;22;20423;-77
2022/07/19 03:46:09;;;;;;;16.67;8.37;;;17.70;1.00;;;;;;6355489;22;20432;-80
2022/07/19 03:48:36;;;;;;;12.57;7.90;;;17.70;1.00;;;;;;6355345;22;20393;-78
2022/07/19 03:51:06;;;;;;;14.13;9.43;;;17.70;1.00;;;;;;6340366;22;20407;-79
2022/07/19 03:53:35;;;;;;;20.10;8.30;;;17.70;1.00;;;;;;6354092;22;20417;-78
2022/07/19 03:56:06;;;;;;;20.97;9.00;;;17.80;1.00;;;;;;6347454;22;20389;-77
2022/07/19 03:58:33;;;;;;;20.40;9.10;;;17.80;1.00;;;;;;6354679;22;20835;-79
2022/07/19 04:01:04;;;;;;;14.47;8.27;;;17.80;1.00;;;;;;6354476;22;20410;-80
2022/07/19 04:03:31;;;;;;;13.07;8.17;;;17.80;1.00;;;;;;6347370;22;20602;-78
2022/07/19 04:06:03;;;;;;;10.87;7.80;;;17.70;1.00;;;;;;6351689;22;20429;-79
2022/07/19 04:08:29;;;;;;;13.70;8.17;;;17.70;1.00;;;;;;6354951;22;20890;-79
2022/07/19 04:10:57;;;;;;;10.10;7.50;;;17.80;1.00;;;;;;6346150;22;20952;-75
2022/07/19 04:13:25;;;;;;;9.37;7.80;;;17.80;1.00;;;;;;6348293;22;21009;-76
2022/07/19 04:15:55;;;;;;;8.17;7.33;;;17.80;1.00;;;;;;6346788;22;20422;-76
2022/07/19 04:18:23;;;;;;;11.70;6.77;;;17.80;1.00;;;;;;6350845;22;20449;-76
2022/07/19 04:20:54;;;;;;;11.43;8.40;;;17.80;1.00;;;;;;6322311;22;20401;-80
2022/07/19 04:23:21;;;;;;;13.03;9.03;;;17.80;1.00;;;;;;6356641;22;20413;-80
2022/07/19 04:25:49;;;;;;;10.10;8.73;;;17.90;1.00;;;;;;6338488;22;20946;-75
2022/07/19 04:28:19;;;;;;;9.20;7.77;;;17.90;1.00;;;;;;6354389;22;20433;-79
2022/07/19 04:30:51;;;;;;;7.73;7.03;;;18.00;1.00;;;;;;6353415;22;20479;-79
2022/07/19 04:33:20;;;;;;;12.53;8.67;;;18.00;1.00;;;;;;6327496;22;20474;-79
2022/07/19 04:35:47;;;;;;;10.27;8.97;;;18.10;1.00;;;;;;6353239;22;20491;-78
2022/07/19 04:38:14;;;;;;;10.43;8.27;;;18.20;1.00;;;;;;6358485;22;21071;-80
2022/07/19 04:40:43;;;;;;;10.33;8.03;;;18.30;1.00;;;;;;6356881;22;20442;-76
2022/07/19 04:43:14;;;;;;;16.00;10.13;;;18.30;1.00;;;;;;6352526;22;20453;-77
2022/07/19 04:45:44;;;;;;;11.07;8.17;;;18.40;1.00;;;;;;6354427;22;20449;-78
2022/07/19 04:48:17;;;;;;;9.20;8.40;;;18.50;1.00;;;;;;6338752;22;20378;-80
2022/07/19 04:50:44;;;;;;;8.33;7.37;;;18.50;1.00;;;;;;6341135;22;20465;-76
2022/07/19 04:53:14;;;;;;;9.20;7.83;;;18.60;1.00;;;;;;6352298;22;20436;-76
2022/07/19 04:55:44;;;;;;;9.30;7.90;;;18.70;1.00;;;;;;6352780;22;20805;-76
2022/07/19 04:58:14;;;;;;;11.07;8.87;;;18.70;1.00;;;;;;6352047;22;20733;-77
2022/07/19 05:00:44;;;;;;;10.17;7.90;;;18.80;1.00;;;;;;6353852;22;20377;-78
2022/07/19 05:03:12;;;;;;;11.90;7.80;;;18.90;1.00;;;;;;6352369;22;20421;-79
2022/07/19 05:05:44;;;;;;;10.27;7.60;;;19.00;1.00;;;;;;6351620;22;20413;-78
2022/07/19 05:08:11;;;;;;;10.97;8.73;;;19.00;1.00;;;;;;6341196;22;20417;-79
2022/07/19 05:10:41;;;;;;;8.57;7.00;;;19.10;1.00;;;;;;6354648;22;21014;-76
2022/07/19 05:13:07;;;;;;;11.37;7.87;;;19.20;1.00;;;;;;6345164;22;20487;-80
2022/07/19 05:15:36;;;;;;;10.60;7.20;;;19.30;1.00;;;;;;6348327;22;20436;-77
2022/07/19 05:18:05;;;;;;;10.80;7.97;;;19.40;1.00;;;;;;6346429;22;20392;-78
2022/07/19 05:20:34;;;;;;;11.77;7.20;;;19.50;1.00;;;;;;6348536;22;20425;-75
2022/07/19 05:23:08;;;;;;;8.77;7.80;;;19.60;1.00;;;;;;6326512;22;20370;-75
2022/07/19 05:25:36;;;;;;;13.40;8.30;;;19.80;1.00;;;;;;6354735;22;20794;-79
2022/07/19 05:28:05;;;;;;;13.03;7.53;;;19.80;1.00;;;;;;6358583;22;20373;-81
2022/07/19 05:30:32;;;;;;;12.43;8.13;;;19.90;1.00;;;;;;6355055;22;20440;-78
2022/07/19 05:33:03;;;;;;;7.83;7.03;;;20.00;1.00;;;;;;6353943;22;20409;-81
2022/07/19 05:35:30;;;;;;;10.60;7.33;;;20.10;1.00;;;;;;6357032;22;20417;-79
2022/07/19 05:38:06;;;;;;;8.70;7.27;;;20.40;1.00;;;;;;6347570;22;20397;-77
2022/07/19 05:40:33;;;;;;;14.87;7.50;;;20.50;1.00;;;;;;6353608;22;20456;-77
2022/07/19 05:43:04;;;;;;;8.40;6.90;;;20.70;1.00;;;;;;6351333;22;20400;-79
2022/07/19 05:45:31;;;;;;;12.10;7.57;;;20.70;1.00;;;;;;6346061;22;20831;-78
2022/07/19 05:47:59;;;;;;;9.30;5.90;;;20.90;1.00;;;;;;6340124;22;20422;-79
2022/07/19 05:50:26;;;;;;;10.50;6.47;;;21.00;1.00;;;;;;6356276;22;20397;-81
2022/07/19 05:52:56;;;;;;;9.90;6.90;;;21.10;1.00;;;;;;6355743;22;21054;-80
2022/07/19 05:55:26;;;;;;;7.47;6.67;;;21.30;1.00;;;;;;6353704;22;21260;-78
2022/07/19 05:57:53;;;;;;;9.57;6.97;;;21.40;1.00;;;;;;6345152;22;20420;-80
2022/07/19 06:00:24;;;;;;;13.63;8.00;;;21.60;1.00;;;;;;6353952;22;20421;-75
2022/07/19 06:02:51;;;;;;;8.10;6.70;;;21.70;1.00;;;;;;6340276;22;20417;-79
2022/07/19 06:05:21;;;;;;;17.93;7.53;;;21.90;1.00;;;;;;6355107;22;20471;-77
2022/07/19 06:07:49;;;;;;;12.50;8.23;;;22.10;1.00;;;;;;6349609;22;20492;-80
2022/07/19 06:10:16;;;;;;;7.93;6.87;;;22.20;1.00;;;;;;6328582;22;20486;-80
2022/07/19 06:12:46;;;;;;;9.03;6.60;;;22.30;1.00;;;;;;6354617;22;20369;-80
2022/07/19 06:15:13;;;;;;;9.83;6.17;;;22.30;1.00;;;;;;6351354;22;20428;-80
2022/07/19 06:17:45;;;;;;;10.97;6.57;;;22.40;1.00;;;;;;6352772;22;20436;-78
2022/07/19 06:20:12;;;;;;;10.03;7.27;;;22.40;1.00;;;;;;6338085;22;20886;-80
2022/07/19 06:22:43;;;;;;;10.40;8.40;;;22.60;1.00;;;;;;6352285;22;20921;-77
2022/07/19 06:25:11;;;;;;;9.07;6.93;;;22.70;1.00;;;;;;6352155;22;20406;-78
2022/07/19 06:27:38;;;;;;;11.33;8.30;;;22.90;1.00;;;;;;6347785;22;20493;-77
2022/07/19 06:30:08;;;;;;;14.53;7.23;;;23.00;1.00;;;;;;6322994;22;20409;-81
2022/07/19 06:32:34;;;;;;;8.90;6.27;;;23.20;1.00;;;;;;6352026;22;20444;-79
2022/07/19 06:35:05;;;;;;;12.07;6.20;;;23.30;1.00;;;;;;6351049;22;20417;-77
2022/07/19 06:37:32;;;;;;;8.73;6.50;;;23.30;1.00;;;;;;6351504;22;20432;-78
2022/07/19 06:40:06;;;;;;;16.87;11.60;;;23.40;1.00;;;;;;6347672;22;20430;-80
2022/07/19 06:42:33;;;;;;;9.13;6.80;;;23.60;1.00;;;;;;6353676;22;20439;-77
2022/07/19 06:45:01;;;;;;;9.70;6.80;;;23.70;1.00;;;;;;6332274;22;20424;-77
2022/07/19 06:47:30;;;;;;;9.97;7.67;;;23.90;1.00;;;;;;6346181;22;20421;-77
2022/07/19 06:49:57;;;;;;;8.80;6.33;;;24.00;1.00;;;;;;6346106;22;20509;-80
2022/07/19 06:52:24;;;;;;;9.20;6.20;;;24.10;1.00;;;;;;6351223;22;20835;-80
2022/07/19 06:54:55;;;;;;;8.77;6.13;;;24.30;1.00;;;;;;6346144;22;20413;-80
2022/07/19 06:57:22;;;;;;;12.50;6.47;;;24.30;1.00;;;;;;6352006;22;20417;-76
2022/07/19 06:59:51;;;;;;;10.70;6.23;;;24.50;1.00;;;;;;6350936;22;20422;-79
2022/07/19 07:02:19;;;;;;;9.87;6.77;;;24.70;1.00;;;;;;6352298;22;20467;-79
2022/07/19 07:04:48;;;;;;;7.87;5.43;;;24.80;1.00;;;;;;6348033;22;20448;-78
2022/07/19 07:07:15;;;;;;;6.97;5.87;;;24.90;1.00;;;;;;6352613;22;20395;-80
2022/07/19 07:09:45;;;;;;;6.50;4.63;;;25.10;1.00;;;;;;6339754;22;20407;-79
2022/07/19 07:12:12;;;;;;;11.37;6.00;;;25.30;1.00;;;;;;6356095;22;20434;-80
2022/07/19 07:14:46;;;;;;;10.57;5.63;;;25.30;1.00;;;;;;6353768;22;20444;-76
2022/07/19 07:17:13;;;;;;;9.27;4.63;;;25.40;1.00;;;;;;6353722;22;20440;-80
2022/07/19 07:19:45;;;;;;;8.97;5.07;;;25.60;1.00;;;;;;6354326;22;20449;-81
2022/07/19 07:22:13;;;;;;;5.37;3.97;;;25.80;1.00;;;;;;6356342;22;20395;-78
2022/07/19 07:24:44;;;;;;;12.20;6.00;;;25.90;1.00;;;;;;6354905;22;20452;-79
2022/07/19 07:27:11;;;;;;;6.10;5.03;;;26.00;1.00;;;;;;6354316;22;20414;-81
2022/07/19 07:29:38;;;;;;;5.40;4.90;;;26.10;1.00;;;;;;6352461;22;20477;-77
2022/07/19 07:32:08;;;;;;;6.20;3.43;;;26.20;1.00;;;;;;6350683;22;20440;-77
2022/07/19 07:34:36;;;;;;;7.83;5.47;;;26.30;1.00;;;;;;6353018;22;20983;-79
2022/07/19 07:37:05;;;;;;;5.10;3.87;;;26.40;1.00;;;;;;6354592;22;20436;-80
2022/07/19 07:39:33;;;;;;;5.60;4.20;;;26.60;1.00;;;;;;6356091;22;20959;-77
2022/07/19 07:42:05;;;;;;;7.00;3.97;;;26.70;1.00;;;;;;6353378;22;20382;-81
2022/07/19 07:44:32;;;;;;;6.63;5.07;;;26.90;1.00;;;;;;6357258;22;20475;-78
2022/07/19 07:47:03;;;;;;;5.53;4.33;;;27.00;1.00;;;;;;6353466;22;20913;-81
2022/07/19 07:49:30;;;;;;;5.97;4.60;;;27.20;1.00;;;;;;6353748;22;20443;-81
2022/07/19 07:51:57;;;;;;;7.80;4.13;;;27.30;1.00;;;;;;6347301;22;20940;-82
2022/07/19 07:54:26;;;;;;;5.00;4.47;;;27.40;1.00;;;;;;6350691;22;20596;-80
2022/07/19 07:56:56;;;;;;;7.93;5.40;;;27.50;1.00;;;;;;6353714;22;20417;-79
2022/07/19 07:59:25;;;;;;;11.27;6.10;;;27.70;1.00;;;;;;6355073;22;20433;-78
2022/07/19 08:01:52;;;;;;;6.57;3.90;;;27.90;1.00;;;;;;6353936;22;20437;-78
2022/07/19 08:04:21;;;;;;;10.33;5.10;;;28.00;1.00;;;;;;6356493;22;20427;-81
2022/07/19 08:06:48;;;;;;;8.83;4.00;;;28.00;1.00;;;;;;6355381;22;20381;-77
2022/07/19 08:09:16;;;;;;;5.50;4.30;;;28.20;1.00;;;;;;6353448;22;20423;-81
2022/07/19 08:11:45;;;;;;;3.63;3.20;;;28.40;1.00;;;;;;6352081;22;20389;-79
2022/07/19 08:14:13;;;;;;;6.93;4.50;;;28.50;1.00;;;;;;6349830;22;20416;-79
2022/07/19 08:16:48;;;;;;;5.93;3.67;;;28.70;1.00;;;;;;6352265;22;20397;-79
2022/07/19 08:19:15;;;;;;;6.03;3.73;;;29.00;1.00;;;;;;6339925;22;20425;-80
2022/07/19 08:21:45;;;;;;;7.43;6.07;;;29.10;1.00;;;;;;6353534;22;20409;-81
2022/07/19 08:24:11;;;;;;;6.07;4.10;;;29.30;1.00;;;;;;6351248;22;20449;-78
2022/07/19 08:26:38;;;;;;;6.30;4.43;;;29.60;1.00;;;;;;6352457;22;20500;-77
2022/07/19 08:29:05;;;;;;;5.70;4.40;;;29.70;1.00;;;;;;6351779;22;20463;-77
2022/07/19 08:31:33;;;;;;;4.27;3.60;;;29.70;1.00;;;;;;6347452;22;20909;-79
2022/07/19 08:34:05;;;;;;;5.80;3.90;;;29.80;1.00;;;;;;6351819;22;20404;-79
2022/07/19 08:36:34;;;;;;;5.40;3.90;;;29.80;1.00;;;;;;6349716;22;20421;-81
2022/07/19 08:39:07;;;;;;;8.47;4.90;;;29.90;1.00;;;;;;6351311;22;20435;-81
2022/07/19 08:41:35;;;;;;;10.90;5.67;;;30.00;1.00;;;;;;6325353;22;20409;-80
2022/07/19 08:44:05;;;;;;;3.97;3.53;;;30.10;1.00;;;;;;6352766;22;20389;-79
2022/07/19 08:46:36;;;;;;;5.50;4.10;;;30.20;1.00;;;;;;6352181;22;20424;-80
2022/07/19 08:49:05;;;;;;;18.90;10.63;;;30.30;1.00;;;;;;6350123;22;20469;-78
2022/07/19 08:51:35;;;;;;;5.40;3.70;;;30.50;1.00;;;;;;6350365;22;20909;-77
2022/07/19 08:54:02;;;;;;;4.03;3.43;;;30.50;1.00;;;;;;6350150;22;20393;-81
2022/07/19 08:59:14;;;;;;;4.37;3.97;;;30.70;1.00;;;;;;6345679;22;20381;-81
2022/07/19 09:01:42;;;;;;;6.93;3.40;;;30.90;1.00;;;;;;6346791;22;20405;-80
2022/07/19 09:04:13;;;;;;;8.10;3.97;;;31.00;1.00;;;;;;6346297;22;20410;-80
2022/07/19 09:06:42;;;;;;;4.73;3.67;;;31.20;1.00;;;;;;6345309;22;20889;-80
2022/07/19 09:09:10;;;;;;;5.80;3.60;;;31.20;1.00;;;;;;6344514;22;20655;-81
2022/07/19 09:11:38;;;;;;;6.37;4.50;;;31.40;1.00;;;;;;6296629;22;1136038;-80
2022/07/19 09:14:09;;;;;;;7.20;3.43;;;31.40;1.00;;;;;;6347662;22;20254;-80
2022/07/19 09:17:03;;;;;;;5.67;3.93;;;31.40;1.00;;;;;;6348722;22;20428;-80
2022/07/19 09:19:36;;;;;;;7.30;3.50;;;31.50;1.00;;;;;;6329222;22;20425;-82
2022/07/19 09:22:05;;;;;;;5.90;3.23;;;31.60;1.00;;;;;;6351001;22;20417;-80
2022/07/19 09:24:36;;;;;;;8.23;4.70;;;31.80;1.00;;;;;;6352175;22;20461;-80
2022/07/19 09:27:06;;;;;;;7.43;4.00;;;32.00;1.00;;;;;;6352649;22;20461;-80
2022/07/19 09:29:38;;;;;;;5.60;3.70;;;32.10;1.00;;;;;;6354410;22;20390;-80
2022/07/19 09:32:15;;;;;;;4.90;3.70;;;32.20;1.00;;;;;;6353709;22;20885;-81
2022/07/19 09:34:55;;;;;;;5.13;3.77;;;32.30;1.00;;;;;;6352734;22;20893;-78
2022/07/19 09:37:23;;;;;;;4.43;3.60;;;32.50;1.00;;;;;;6352434;22;20799;-80
2022/07/19 09:39:56;;;;;;;5.07;3.40;;;32.70;1.00;;;;;;6354060;22;20892;-80
2022/07/19 09:42:25;;;;;;;4.00;3.60;;;33.30;1.00;;;;;;6353416;22;20493;-81
2022/07/19 09:45:01;;;;;;;5.70;3.00;;;34.60;1.00;;;;;;6351699;22;20449;-82
2022/07/19 09:47:38;;;;;;;3.53;3.23;;;36.50;1.00;;;;;;6338109;22;21106;-82
2022/07/19 09:50:16;;;;;;;3.83;3.00;;;38.00;1.00;;;;;;6323988;22;20894;-79
2022/07/19 09:52:49;;;;;;;3.20;2.90;;;39.10;1.00;;;;;;6353892;22;20925;-79
2022/07/19 09:55:20;;;;;;;5.40;3.07;;;39.90;1.00;;;;;;6326436;22;20532;-82
2022/07/19 09:57:54;;;;;;;4.93;3.40;;;40.10;1.00;;;;;;6336926;22;20429;-79
2022/07/19 10:00:22;;;;;;;4.90;3.70;;;40.80;1.00;;;;;;6352941;22;20425;-80
2022/07/19 10:02:57;;;;;;;4.80;3.53;;;41.60;1.00;;;;;;6353729;22;20443;-80
2022/07/19 10:05:25;;;;;;;5.87;3.10;;;42.40;1.00;;;;;;6354165;22;20494;-80
2022/07/19 10:07:59;;;;;;;4.17;2.97;;;42.90;1.00;;;;;;6352757;22;20366;-79
2022/07/19 10:10:30;;;;;;;4.37;4.00;;;43.50;1.00;;;;;;6351119;22;20440;-79
2022/07/19 10:12:58;;;;;;;3.53;3.23;;;44.10;1.00;;;;;;6352232;22;20431;-81
2022/07/19 10:15:26;;;;;;;4.40;3.07;;;44.30;1.00;;;;;;6351300;22;20432;-79
2022/07/19 10:18:10;;;;;;;3.40;3.20;;;44.40;1.00;;;;;;6346268;22;20794;-80
2022/07/19 10:20:38;;;;;;;3.33;3.03;;;44.60;1.00;;;;;;6348154;22;20435;-80
2022/07/19 10:23:07;;;;;;;4.47;2.93;;;44.90;1.00;;;;;;6336081;22;20397;-79
2022/07/19 10:25:46;;;;;;;6.03;4.73;;;44.90;1.00;;;;;;6354269;22;20433;-79
2022/07/19 10:28:31;;;;;;;4.33;2.90;;;45.10;1.00;;;;;;6349992;22;20482;-77
2022/07/19 10:30:58;;;;;;;5.17;3.83;;;45.50;1.00;;;;;;6345084;22;20484;-78
2022/07/19 10:33:58;;;;;;;7.23;3.53;;;45.50;1.00;;;;;;6351672;22;20457;-76
2022/07/19 10:36:39;;;;;;;4.97;3.73;;;45.30;1.00;;;;;;6350446;22;20410;-79
2022/07/19 10:39:43;;;;;;;3.90;3.40;;;45.40;1.00;;;;;;6352989;22;20496;-78
2022/07/19 10:42:17;;;;;;;3.57;3.30;;;45.60;1.00;;;;;;6354084;22;20429;-76
2022/07/19 10:45:11;;;;;;;5.90;3.40;;;45.80;1.00;;;;;;6338655;22;20463;-79
2022/07/19 10:48:01;;;;;;;3.10;2.80;;;45.60;1.00;;;;;;6354769;22;20501;-80
2022/07/19 10:50:48;;;;;;;4.20;3.10;;;45.50;1.00;;;;;;6353568;22;20924;-82
2022/07/19 10:53:57;;;;;;;4.33;3.30;;;45.60;1.00;;;;;;6352206;22;20885;-80
2022/07/19 10:56:29;;;;;;;3.87;2.83;;;45.30;1.00;;;;;;6354207;22;20381;-79
2022/07/19 10:58:58;;;;;;;3.50;3.10;;;45.50;1.00;;;;;;6354333;22;20398;-77
2022/07/19 11:01:28;;;;;;;3.53;3.20;;;45.30;1.00;;;;;;6354919;22;20365;-77
2022/07/19 11:04:16;;;;;;;3.50;3.20;;;45.00;1.00;;;;;;6353997;22;20421;-80
2022/07/19 11:06:44;;;;;;;8.50;7.87;;;45.00;1.00;;;;;;6349082;22;20385;-78
2022/07/19 11:09:15;;;;;;;3.03;2.63;;;45.70;1.00;;;;;;6353087;22;20491;-78
2022/07/19 11:11:44;;;;;;;6.20;3.43;;;46.40;1.00;;;;;;6355358;22;20393;-81
2022/07/19 11:14:21;;;;;;;3.90;3.50;;;46.70;1.00;;;;;;6352747;22;20460;-77
2022/07/19 11:16:59;;;;;;;2.77;2.50;;;46.90;1.00;;;;;;6353032;22;20409;-81
2022/07/19 11:19:26;;;;;;;3.20;2.93;;;47.10;1.00;;;;;;6357365;22;20415;-80
2022/07/19 11:22:01;;;;;;;3.60;3.13;;;47.20;1.00;;;;;;6352690;22;20563;-79
2022/07/19 11:24:32;;;;;;;3.70;3.40;;;47.40;1.00;;;;;;6354824;22;20432;-79
2022/07/19 11:27:03;;;;;;;2.70;2.50;;;47.30;1.00;;;;;;6354626;22;20421;-79
2022/07/19 11:29:56;;;;;;;3.67;3.27;;;47.30;1.00;;;;;;6352741;22;20417;-79
2022/07/19 11:32:23;;;;;;;3.90;3.10;;;46.90;1.00;;;;;;6353754;22;20425;-77
2022/07/19 11:34:57;;;;;;;3.07;2.87;;;46.90;1.00;;;;;;6353086;22;20448;-80
2022/07/19 11:37:29;;;;;;;4.90;3.00;;;47.00;1.00;;;;;;6355533;22;20423;-78
2022/07/19 11:39:57;;;;;;;5.03;3.50;;;47.10;1.00;;;;;;6347941;22;20413;-79
2022/07/19 11:42:36;;;;;;;2.90;2.70;;;47.30;1.00;;;;;;6351412;22;20382;-79
2022/07/19 11:45:17;;;;;;;2.97;2.77;;;47.20;1.00;;;;;;6341652;22;20397;-80
2022/07/19 11:47:48;;;;;;;4.03;2.97;;;46.80;1.00;;;;;;6352542;22;20373;-80
2022/07/19 11:50:18;;;;;;;3.30;2.83;;;46.70;1.00;;;;;;6334462;22;20413;-78
2022/07/19 11:52:51;;;;;;;6.80;3.07;;;47.10;1.00;;;;;;6357229;22;21167;-81
2022/07/19 11:55:26;;;;;;;3.87;3.57;;;47.60;1.00;;;;;;6354720;22;20425;-80
2022/07/19 11:57:54;;;;;;;3.40;3.10;;;47.80;1.00;;;;;;6323350;22;20417;-78
2022/07/19 12:00:26;;;;;;;4.53;2.63;;;48.20;1.00;;;;;;6350873;22;20432;-78
2022/07/19 12:02:57;;;;;;;3.23;2.93;;;48.50;1.00;;;;;;6353457;22;20495;-78
2022/07/19 12:05:31;;;;;;;3.80;3.40;;;48.00;1.00;;;;;;6355444;22;20390;-79
2022/07/19 12:08:06;;;;;;;4.73;3.23;;;47.90;1.00;;;;;;6350558;22;20439;-79
2022/07/19 12:10:44;;;;;;;3.70;3.47;;;47.50;1.00;;;;;;6354047;22;20494;-81
2022/07/19 12:13:14;;;;;;;9.57;3.47;;;47.50;1.00;;;;;;6349450;22;20420;-80
2022/07/19 12:15:48;;;;;;;3.20;3.00;;;48.20;1.00;;;;;;6355386;22;20432;-81
2022/07/19 12:18:18;;;;;;;4.93;3.80;;;48.80;1.00;;;;;;6350137;22;20413;-79
2022/07/19 12:21:06;;;;;;;3.50;2.70;;;48.80;1.00;;;;;;6356980;22;20393;-81
2022/07/19 12:23:35;;;;;;;3.57;3.27;;;49.20;1.00;;;;;;6356307;22;20413;-81
2022/07/19 12:26:04;;;;;;;8.03;3.77;;;48.70;1.00;;;;;;6352419;22;21012;-78
2022/07/19 12:28:36;;;;;;;3.50;3.20;;;48.90;1.00;;;;;;6353292;22;20381;-77
2022/07/19 12:31:03;;;;;;;7.70;3.87;;;49.00;1.00;;;;;;6353442;22;20413;-81
2022/07/19 12:33:38;;;;;;;3.90;3.70;;;48.90;1.00;;;;;;6355590;22;20413;-82
2022/07/19 12:36:05;;;;;;;4.60;4.20;;;49.10;1.00;;;;;;6353817;22;20413;-80
2022/07/19 12:38:37;;;;;;;3.70;3.30;;;48.70;1.00;;;;;;6356435;22;20429;-83
2022/07/19 12:41:09;;;;;;;5.70;4.00;;;48.30;1.00;;;;;;6354978;22;20419;-79
2022/07/19 12:43:36;;;;;;;3.70;3.40;;;48.20;1.00;;;;;;6355080;22;20366;-78
2022/07/19 12:46:03;;;;;;;4.73;3.90;;;47.90;1.00;;;;;;6352919;22;20500;-79
2022/07/19 12:48:31;;;;;;;3.47;3.17;;;48.10;1.00;;;;;;6348783;22;20463;-80
2022/07/19 12:50:58;;;;;;;3.93;3.60;;;48.20;1.00;;;;;;6354067;22;20409;-82
2022/07/19 12:53:24;;;;;;;3.97;3.67;;;48.50;1.00;;;;;;6354098;22;20485;-79
2022/07/19 12:55:57;;;;;;;3.63;3.33;;;48.90;1.00;;;;;;6352647;22;20385;-78
2022/07/19 13:01:12;;;;;;;4.27;3.87;;;49.50;1.00;;;;;;6352947;22;20385;-80
2022/07/19 13:03:41;;;;;;;4.03;3.63;;;49.80;1.00;;;;;;6354606;22;20409;-83
2022/07/19 13:06:08;;;;;;;3.50;3.20;;;49.70;1.00;;;;;;6353521;22;20433;-82
2022/07/19 13:08:35;;;;;;;3.87;3.53;;;49.70;1.00;;;;;;6345736;22;20416;-81
2022/07/19 13:11:03;;;;;;;4.80;3.40;;;49.60;1.00;;;;;;6345498;22;20456;-81
2022/07/19 13:13:30;;;;;;;4.50;4.07;;;49.20;1.00;;;;;;6353005;22;20947;-78
2022/07/19 13:15:57;;;;;;;3.23;3.03;;;49.50;1.00;;;;;;6350557;22;20876;-78
2022/07/19 13:18:24;;;;;;;4.40;4.00;;;49.50;1.00;;;;;;6353106;22;20421;-78